createdAt,value
2022-10-19T00:01:06.015Z,99.90
2022-10-19T00:06:29.259Z,99.90
2022-10-19T00:09:18.133Z,99.90
2022-10-19T00:11:48.379Z,99.90
2022-10-19T00:14:19.318Z,99.90
2022-10-19T00:16:49.511Z,99.90
2022-10-19T00:29:12.510Z,99.90
2022-10-19T00:31:40.873Z,99.90
2022-10-19T00:51:47.998Z,99.90
2022-10-19T00:59:17.101Z,99.90
2022-10-19T01:01:46.338Z,99.90
2022-10-19T01:09:10.325Z,99.90
2022-10-19T01:17:13.353Z,99.90
2022-10-19T01:20:28.150Z,99.90
2022-10-19T01:26:05.655Z,99.90
2022-10-19T01:28:54.184Z,99.90
2022-10-19T01:33:55.434Z,99.90
2022-10-19T01:36:31.802Z,99.90
2022-10-19T01:44:19.055Z,99.90
2022-10-19T01:47:00.289Z,99.90
2022-10-19T01:52:18.237Z,99.90
2022-10-19T01:54:50.283Z,99.90
2022-10-19T01:57:33.239Z,99.90
2022-10-19T02:00:07.428Z,99.90
2022-10-19T02:02:49.163Z,99.90
2022-10-19T02:05:20.405Z,99.90
2022-10-19T02:17:50.505Z,99.90
2022-10-19T02:20:18.683Z,99.90
2022-10-19T02:22:46.218Z,99.90
2022-10-19T02:25:14.342Z,99.90
2022-10-19T02:27:42.638Z,99.90
2022-10-19T02:30:12.805Z,99.90
2022-10-19T02:32:40.954Z,99.90
2022-10-19T02:40:10.401Z,99.90
2022-10-19T02:42:41.067Z,99.90
2022-10-19T02:48:07.798Z,99.90
2022-10-19T02:50:35.638Z,99.90
2022-10-19T02:53:03.337Z,99.90
2022-10-19T02:55:31.275Z,99.90
2022-10-19T03:05:25.637Z,99.90
2022-10-19T03:07:53.229Z,99.90
2022-10-19T03:15:18.631Z,99.90
2022-10-19T03:22:42.136Z,99.90
2022-10-19T03:25:09.835Z,99.90
2022-10-19T03:27:37.380Z,99.90
2022-10-19T03:30:05.264Z,99.90
2022-10-19T03:42:24.036Z,99.90
2022-10-19T03:44:51.652Z,99.90
2022-10-19T03:47:19.265Z,99.90
2022-10-19T04:02:06.290Z,99.90
2022-10-19T04:07:01.670Z,99.90
2022-10-19T04:11:57.133Z,99.90
2022-10-19T04:17:01.801Z,99.90
2022-10-19T04:19:29.489Z,99.90
2022-10-19T04:21:57.121Z,99.90
2022-10-19T04:24:25.010Z,99.90
2022-10-19T04:26:54.397Z,99.90
2022-10-19T04:29:26.474Z,99.90
2022-10-19T04:31:57.276Z,99.90
2022-10-19T04:36:53.437Z,99.90
2022-10-19T04:39:20.961Z,99.90
2022-10-19T04:44:16.379Z,99.90
2022-10-19T04:49:15.129Z,99.90
2022-10-19T04:51:45.447Z,99.90
2022-10-19T04:56:41.054Z,99.90
2022-10-19T04:59:09.906Z,99.90
2022-10-19T05:01:38.269Z,99.90
2022-10-19T05:04:05.757Z,99.90
2022-10-19T05:06:33.508Z,99.90
2022-10-19T05:09:01.098Z,99.90
2022-10-19T05:16:25.804Z,99.90
2022-10-19T05:21:28.895Z,99.90
2022-10-19T05:23:57.393Z,99.90
2022-10-19T05:26:27.082Z,99.90
2022-10-19T05:31:29.586Z,99.90
2022-10-19T05:39:16.271Z,99.90
2022-10-19T05:44:21.160Z,99.90
2022-10-19T05:46:49.880Z,99.90
2022-10-19T05:49:19.996Z,99.90
2022-10-19T05:51:48.070Z,99.90
2022-10-19T05:54:16.191Z,99.90
2022-10-19T05:56:44.677Z,99.90
2022-10-19T06:11:40.907Z,99.90
2022-10-19T06:14:12.779Z,99.90
2022-10-19T06:24:11.658Z,99.90
2022-10-19T06:26:39.265Z,99.90
2022-10-19T06:31:36.410Z,99.90
2022-10-19T06:34:04.743Z,99.90
2022-10-19T06:39:02.014Z,99.90
2022-10-19T06:41:30.850Z,99.90
2022-10-19T06:44:09.912Z,99.90
2022-10-19T06:46:38.344Z,99.90
2022-10-19T06:49:05.907Z,99.90
2022-10-19T06:51:36.498Z,99.90
2022-10-19T06:56:32.235Z,99.90
2022-10-19T06:58:59.758Z,99.90
2022-10-19T07:01:27.467Z,99.90
2022-10-19T07:03:55.389Z,99.90
2022-10-19T07:11:20.419Z,99.90
2022-10-19T07:16:21.059Z,99.90
2022-10-19T07:21:20.620Z,99.90
2022-10-19T07:26:17.520Z,99.90
2022-10-19T07:31:17.975Z,99.90
2022-10-19T07:33:45.894Z,99.90
2022-10-19T07:36:14.023Z,99.90
2022-10-19T07:38:41.839Z,99.90
2022-10-19T07:51:08.438Z,99.90
2022-10-19T07:56:06.830Z,99.90
2022-10-19T08:01:09.154Z,99.90
2022-10-19T08:08:53.987Z,99.90
2022-10-19T08:11:25.414Z,99.90
2022-10-19T08:13:53.959Z,99.90
2022-10-19T08:16:33.641Z,99.90
2022-10-19T08:19:10.949Z,99.90
2022-10-19T08:21:40.305Z,99.90
2022-10-19T08:24:08.722Z,99.90
2022-10-19T08:26:38.361Z,99.90
2022-10-19T08:29:11.040Z,99.90
2022-10-19T08:31:39.487Z,99.90
2022-10-19T08:34:07.696Z,99.90
2022-10-19T08:36:37.051Z,99.90
2022-10-19T08:39:06.946Z,99.90
2022-10-19T08:44:23.456Z,99.90
2022-10-19T08:47:01.493Z,99.90
2022-10-19T08:49:31.851Z,99.90
2022-10-19T08:52:11.278Z,99.90
2022-10-19T08:54:51.956Z,99.90
2022-10-19T08:58:03.924Z,99.90
2022-10-19T09:00:53.945Z,99.90
2022-10-19T09:06:28.587Z,99.90
2022-10-19T09:08:57.880Z,99.90
2022-10-19T09:11:32.730Z,99.90
2022-10-19T09:14:16.250Z,99.90
2022-10-19T09:19:25.762Z,99.90
2022-10-19T09:21:57.706Z,99.90
2022-10-19T09:24:34.841Z,99.90
2022-10-19T09:27:03.479Z,99.90
2022-10-19T09:29:45.171Z,99.90
2022-10-19T09:32:14.475Z,99.90
2022-10-19T09:34:46.348Z,99.90
2022-10-19T09:37:21.104Z,99.90
2022-10-19T09:42:33.658Z,99.90
2022-10-19T09:45:42.880Z,99.90
2022-10-19T09:48:37.711Z,99.90
2022-10-19T09:51:13.530Z,99.90
2022-10-19T09:53:57.172Z,99.90
2022-10-19T09:56:26.950Z,99.90
2022-10-19T09:58:59.791Z,99.90
2022-10-19T10:01:43.116Z,99.90
2022-10-19T10:04:17.497Z,99.90
2022-10-19T10:06:47.954Z,99.90
2022-10-19T10:09:22.700Z,99.90
2022-10-19T10:11:51.384Z,99.90
2022-10-19T10:14:32.815Z,99.90
2022-10-19T10:17:22.051Z,99.90
2022-10-19T10:19:57.395Z,99.90
2022-10-19T10:22:34.615Z,99.90
2022-10-19T10:25:12.055Z,99.90
2022-10-19T10:27:40.388Z,99.90
2022-10-19T10:30:10.659Z,99.90
2022-10-19T10:32:48.225Z,99.90
2022-10-19T10:35:49.192Z,99.90
2022-10-19T10:38:33.930Z,99.90
2022-10-19T10:41:07.777Z,99.90
2022-10-19T10:43:38.718Z,99.90
2022-10-19T10:46:12.559Z,99.90
2022-10-19T10:48:55.015Z,99.90
2022-10-19T10:51:28.801Z,99.90
2022-10-19T10:54:14.771Z,99.90
2022-10-19T10:56:44.538Z,99.90
2022-10-19T10:59:41.693Z,99.90
2022-10-19T11:02:39.528Z,99.90
2022-10-19T11:05:39.473Z,99.90
2022-10-19T11:08:13.129Z,99.90
2022-10-19T11:10:49.511Z,96.30
2022-10-19T11:13:31.403Z,97.10
2022-10-19T11:16:16.200Z,95.00
2022-10-19T11:18:46.439Z,95.30
2022-10-19T11:21:21.818Z,94.00
2022-10-19T11:24:23.075Z,88.40
2022-10-19T11:27:11.542Z,86.90
2022-10-19T11:29:57.324Z,87.00
2022-10-19T11:32:39.915Z,84.70
2022-10-19T11:35:28.703Z,77.50
2022-10-19T11:38:29.928Z,71.90
2022-10-19T11:41:17.328Z,73.10
2022-10-19T11:44:26.747Z,83.80
2022-10-19T11:47:05.974Z,85.60
2022-10-19T11:49:54.797Z,88.10
2022-10-19T11:52:47.348Z,88.70
2022-10-19T11:55:44.675Z,79.10
2022-10-19T11:58:32.362Z,80.00
2022-10-19T12:01:07.574Z,90.00
2022-10-19T12:04:23.455Z,84.60
2022-10-19T12:06:59.893Z,87.50
2022-10-19T12:12:15.861Z,95.00
2022-10-19T12:22:23.746Z,93.30
2022-10-19T12:24:55.457Z,93.20
2022-10-19T12:27:45.826Z,92.40
2022-10-19T12:30:17.145Z,92.40
2022-10-19T12:32:55.350Z,92.10
2022-10-19T12:35:47.373Z,92.30
2022-10-19T12:43:38.159Z,93.20
2022-10-19T12:51:47.257Z,94.30
2022-10-19T12:56:54.191Z,94.70
2022-10-19T13:04:27.587Z,95.00
2022-10-19T13:06:57.926Z,98.70
2022-10-19T13:09:37.455Z,99.90
2022-10-19T13:12:21.353Z,98.70
2022-10-19T13:14:55.760Z,95.70
2022-10-19T13:17:40.658Z,99.40
2022-10-19T13:20:14.345Z,97.60
2022-10-19T13:22:47.259Z,93.40
2022-10-19T13:25:18.863Z,93.10
2022-10-19T13:28:06.595Z,90.40
2022-10-19T13:30:36.932Z,95.40
2022-10-19T13:33:29.627Z,91.90
2022-10-19T13:36:00.110Z,97.00
2022-10-19T13:38:44.377Z,97.80
2022-10-19T13:41:25.684Z,98.40
2022-10-19T13:44:04.109Z,98.70
2022-10-19T13:46:31.880Z,99.40
2022-10-19T13:49:02.538Z,99.90
2022-10-19T13:51:37.268Z,99.90
2022-10-19T13:54:22.891Z,95.90
2022-10-19T13:56:53.250Z,99.90
2022-10-19T13:59:37.616Z,96.80
2022-10-19T14:02:13.947Z,99.90
2022-10-19T14:05:06.055Z,99.90
2022-10-19T14:07:45.750Z,98.10
2022-10-19T14:10:22.780Z,99.90
2022-10-19T14:12:56.809Z,99.90
2022-10-19T14:20:38.659Z,99.90
2022-10-19T14:23:33.380Z,99.90
2022-10-19T14:26:14.454Z,99.90
2022-10-19T14:28:43.124Z,99.90
2022-10-19T14:31:19.275Z,99.90
2022-10-19T14:33:50.713Z,99.90
2022-10-19T14:36:21.293Z,99.90
2022-10-19T14:38:52.067Z,99.90
2022-10-19T14:41:28.882Z,99.90
2022-10-19T14:43:58.054Z,99.90
2022-10-19T14:46:33.463Z,99.90
2022-10-19T14:49:03.336Z,99.90
2022-10-19T14:51:36.411Z,99.90
2022-10-19T14:54:25.408Z,99.90
2022-10-19T14:56:57.206Z,99.90
2022-10-19T14:59:29.544Z,99.90
2022-10-19T15:02:00.267Z,99.90
2022-10-19T15:04:35.079Z,99.90
2022-10-19T15:07:05.302Z,99.30
2022-10-19T15:12:18.131Z,97.90
2022-10-19T15:14:47.376Z,98.00
2022-10-19T15:17:43.829Z,94.00
2022-10-19T15:25:24.976Z,95.40
2022-10-19T15:38:23.709Z,99.60
2022-10-19T15:43:37.795Z,99.80
2022-10-19T15:48:56.142Z,98.30
2022-10-19T15:51:23.624Z,99.90
2022-10-19T16:03:57.457Z,97.60
2022-10-19T16:08:54.284Z,99.90
2022-10-19T16:16:29.979Z,97.90
2022-10-19T16:21:30.443Z,99.50
2022-10-19T16:23:58.171Z,99.90
2022-10-19T16:33:51.397Z,99.90
2022-10-19T16:41:16.649Z,99.90
2022-10-19T16:46:12.168Z,99.90
2022-10-19T16:48:39.715Z,99.90
2022-10-19T16:51:07.212Z,99.90
2022-10-19T16:53:35.864Z,99.90
2022-10-19T16:56:08.751Z,99.90
2022-10-19T17:03:46.961Z,99.90
2022-10-19T17:06:16.575Z,99.90
2022-10-19T17:11:34.451Z,99.90
2022-10-19T17:14:07.911Z,99.90
2022-10-19T17:16:37.121Z,99.90
2022-10-19T17:19:06.130Z,99.90
2022-10-19T17:24:03.727Z,99.90
2022-10-19T17:31:29.294Z,99.90
2022-10-19T17:33:57.286Z,99.90
2022-10-19T17:36:28.503Z,99.90
2022-10-19T17:39:11.101Z,99.90
2022-10-19T17:44:06.492Z,99.90
2022-10-19T17:49:04.061Z,99.90
2022-10-19T17:51:34.195Z,99.90
2022-10-19T17:54:13.249Z,99.90
2022-10-19T17:56:41.782Z,99.90
2022-10-19T17:59:09.482Z,99.90
2022-10-19T18:01:37.445Z,99.90
2022-10-19T18:04:05.220Z,99.90
2022-10-19T18:06:36.084Z,99.90
2022-10-19T18:09:06.717Z,99.90
2022-10-19T18:11:42.343Z,99.90
2022-10-19T18:14:11.845Z,99.90
2022-10-19T18:16:45.560Z,99.90
2022-10-19T18:19:15.496Z,99.90
2022-10-19T18:21:45.954Z,99.90
2022-10-19T18:24:19.480Z,99.90
2022-10-19T18:26:48.067Z,99.90
2022-10-19T18:29:21.548Z,99.90
2022-10-19T18:31:51.706Z,99.90
2022-10-19T18:34:25.128Z,99.90
2022-10-19T18:36:53.779Z,99.90
2022-10-19T18:39:21.640Z,99.90
2022-10-19T18:41:54.596Z,99.90
2022-10-19T18:44:26.404Z,99.90
2022-10-19T18:46:55.843Z,99.90
2022-10-19T18:49:24.179Z,99.90
2022-10-19T18:51:55.091Z,99.90
2022-10-19T18:54:26.310Z,99.90
2022-10-19T18:56:55.000Z,99.90
2022-10-19T19:04:19.019Z,99.90
2022-10-19T19:19:12.887Z,99.90
2022-10-19T19:24:15.375Z,99.90
2022-10-19T19:26:48.423Z,99.90
2022-10-19T19:34:12.534Z,99.90
2022-10-19T19:36:47.800Z,99.90
2022-10-19T19:39:19.398Z,99.90
2022-10-19T19:41:49.028Z,99.90
2022-10-19T19:44:18.280Z,99.90
2022-10-19T19:49:14.817Z,99.90
2022-10-19T19:59:12.039Z,99.90
2022-10-19T20:01:40.907Z,99.90
2022-10-19T20:09:07.807Z,99.90
2022-10-19T20:11:38.435Z,99.90
2022-10-19T20:16:37.530Z,99.90
2022-10-19T20:21:35.612Z,99.90
2022-10-19T20:26:33.546Z,99.90
2022-10-19T20:36:38.548Z,99.90
2022-10-19T20:49:01.250Z,99.90
2022-10-19T20:51:35.122Z,99.90
2022-10-19T20:56:35.633Z,99.90
2022-10-19T21:01:34.811Z,99.90
2022-10-19T21:04:04.747Z,99.90
2022-10-19T21:06:35.467Z,99.90
2022-10-19T21:09:04.164Z,99.90
2022-10-19T21:11:34.408Z,99.90
2022-10-19T21:14:05.448Z,99.90
2022-10-19T21:16:37.838Z,99.90
2022-10-19T21:19:08.156Z,99.90
2022-10-19T21:21:45.086Z,99.90
2022-10-19T21:24:15.792Z,99.90
2022-10-19T21:29:12.942Z,99.90
2022-10-19T21:31:44.132Z,99.90
2022-10-19T21:34:19.839Z,99.90
2022-10-19T21:36:48.254Z,99.90
2022-10-19T21:39:16.187Z,99.90
2022-10-19T21:41:43.837Z,99.90
2022-10-19T21:46:39.491Z,99.90
2022-10-19T21:49:07.049Z,99.90
2022-10-19T21:51:49.823Z,99.90
2022-10-19T21:54:19.999Z,99.90
2022-10-19T21:56:48.604Z,99.90
2022-10-19T21:59:16.517Z,99.90
2022-10-19T22:01:44.329Z,99.90
2022-10-19T22:04:21.303Z,99.90
2022-10-19T22:19:11.839Z,99.90
2022-10-19T22:21:39.890Z,99.90
2022-10-19T22:59:40.178Z,99.90
2022-10-19T23:02:07.727Z,99.90
2022-10-19T23:04:35.294Z,99.90
2022-10-19T23:21:49.866Z,99.90
2022-10-19T23:24:17.425Z,99.90
2022-10-19T23:26:44.990Z,99.90
2022-10-19T23:39:04.131Z,99.90
2022-10-19T23:41:31.659Z,99.90
2022-10-19T23:46:27.090Z,99.90
2022-10-19T23:53:52.510Z,99.90
2022-10-19T23:56:27.282Z,99.90
2022-10-19T23:58:55.856Z,99.90
